Time,TemperatureF,DewpointF,PressureIn,WindDirection,WindDirectionDegrees,WindSpeedMPH,WindSpeedGustMPH,Humidity,HourlyPrecipIn,Conditions,Clouds,dailyrainin,SoftwareType,DateUTC
2013-03-25 00:00:00,34.7,-2.3,29.36,NNE,28,0.0,0.0,20,0.00,,---,0.00,VWS V13.01,2013-03-25 04:00:00,
2013-03-25 00:01:00,34.7,-2.3,29.36,NNE,28,0.0,0.0,20,0.00,,---,0.00,VWS V13.01,2013-03-25 04:01:00,
2013-03-25 00:03:00,34.7,-2.3,29.36,NNE,28,0.0,0.0,20,0.00,,---,0.00,VWS V13.01,2013-03-25 04:03:00,
2013-03-25 00:08:00,34.7,-2.3,29.36,NNE,28,0.0,0.0,20,0.00,,---,0.00,VWS V13.01,2013-03-25 04:08:00,
2013-03-25 00:13:00,34.5,-2.4,29.36,NNE,28,0.0,0.0,20,0.00,,---,0.00,VWS V13.01,2013-03-25 04:13:00,
2013-03-25 00:18:00,34.7,-2.3,29.36,NNE,28,0.0,0.0,20,0.00,,---,0.00,VWS V13.01,2013-03-25 04:18:00,
2013-03-25 00:23:00,34.7,-2.3,29.36,NNE,28,0.0,0.0,20,0.00,,---,0.00,VWS V13.01,2013-03-25 04:23:00,
2013-03-25 00:28:00,34.9,-2.1,29.36,NNE,27,0.0,0.0,20,0.00,,---,0.00,VWS V13.01,2013-03-25 04:28:00,
2013-03-25 00:33:00,35.6,-2.6,29.36,East,80,0.0,0.0,19,0.00,,---,0.00,VWS V13.01,2013-03-25 04:33:00,
2013-03-25 00:38:00,36.3,-2.0,29.36,ESE,102,0.0,0.0,19,0.00,,---,0.00,VWS V13.01,2013-03-25 04:38:00,
2013-03-25 00:43:00,36.5,-1.8,29.36,ENE,78,0.0,0.0,19,0.00,,---,0.00,VWS V13.01,2013-03-25 04:43:00,
2013-03-25 00:48:00,36.5,-1.8,29.33,NNW,348,0.0,0.0,19,0.00,,---,0.00,VWS V13.01,2013-03-25 04:48:00,
2013-03-25 00:53:00,36.3,-2.0,29.33,East,96,0.0,0.0,19,0.00,,---,0.00,VWS V13.01,2013-03-25 04:53:00,
2013-03-25 00:58:00,36.1,-2.1,29.33,ENE,62,0.0,0.0,19,0.00,,---,0.00,VWS V13.01,2013-03-25 04:58:00,
2013-03-25 01:04:00,36.0,-2.3,29.33,ESE,107,0.0,0.0,19,0.00,,---,0.00,VWS V13.01,2013-03-25 05:04:00,
2013-03-25 01:09:00,35.8,-2.4,29.33,ESE,107,0.0,0.0,19,0.00,,---,0.00,VWS V13.01,2013-03-25 05:09:00,
2013-03-25 01:14:00,35.6,-2.6,29.33,ESE,107,0.0,0.0,19,0.00,,---,0.00,VWS V13.01,2013-03-25 05:14:00,
2013-03-25 01:19:00,35.6,-2.6,29.33,ESE,107,0.0,0.0,19,0.00,,---,0.00,VWS V13.01,2013-03-25 05:19:00,
2013-03-25 01:24:00,35.4,-1.6,29.33,ESE,107,0.0,0.0,20,0.00,,---,0.00,VWS V13.01,2013-03-25 05:24:00,
2013-03-25 01:29:00,35.4,-1.6,29.33,ESE,107,0.0,0.0,20,0.00,,---,0.00,VWS V13.01,2013-03-25 05:29:00,
2013-03-25 01:34:00,35.2,-1.8,29.33,ESE,107,0.0,0.0,20,0.00,,---,0.00,VWS V13.01,2013-03-25 05:34:00,
2013-03-25 01:39:00,35.1,-2.0,29.33,ESE,107,0.0,0.0,20,0.00,,---,0.00,VWS V13.01,2013-03-25 05:39:00,
2013-03-25 01:44:00,34.9,-2.1,29.33,ESE,107,0.0,0.0,20,0.00,,---,0.00,VWS V13.01,2013-03-25 05:44:00,
2013-03-25 01:49:00,34.7,-2.3,29.33,ESE,107,0.0,0.0,20,0.00,,---,0.00,VWS V13.01,2013-03-25 05:49:00,
2013-03-25 01:55:00,34.5,-2.4,29.33,ESE,107,0.0,0.0,20,0.00,,---,0.00,VWS V13.01,2013-03-25 05:55:00,
2013-03-25 02:00:00,34.3,-2.6,29.33,ESE,107,0.0,0.0,20,0.00,,---,0.00,VWS V13.01,2013-03-25 06:00:00,
2013-03-25 02:05:00,34.2,-2.7,29.33,ESE,107,0.0,0.0,20,0.00,,---,0.00,VWS V13.01,2013-03-25 06:05:00,
2013-03-25 02:10:00,34.0,-2.9,29.33,ESE,107,0.0,0.0,20,0.00,,---,0.00,VWS V13.01,2013-03-25 06:10:00,
2013-03-25 02:15:00,33.8,-3.0,29.33,ESE,107,0.0,0.0,20,0.00,,---,0.00,VWS V13.01,2013-03-25 06:15:00,
2013-03-25 02:20:00,33.8,-3.0,29.33,ESE,107,0.0,0.0,20,0.00,,---,0.00,VWS V13.01,2013-03-25 06:20:00,
2013-03-25 02:25:00,33.6,-3.2,29.33,ESE,107,0.0,0.0,20,0.00,,---,0.00,VWS V13.01,2013-03-25 06:25:00,
2013-03-25 02:30:00,33.6,-3.2,29.33,ESE,107,0.0,0.0,20,0.00,,---,0.00,VWS V13.01,2013-03-25 06:30:00,
2013-03-25 02:35:00,33.6,-3.2,29.33,ESE,107,0.0,0.0,20,0.00,,---,0.00,VWS V13.01,2013-03-25 06:35:00,
2013-03-25 02:40:00,33.4,-3.3,29.33,ESE,107,0.0,0.0,20,0.00,,---,0.00,VWS V13.01,2013-03-25 06:40:00,
2013-03-25 02:46:00,33.3,-3.5,29.33,ESE,107,0.0,0.0,20,0.00,,---,0.00,VWS V13.01,2013-03-25 06:46:00,
2013-03-25 02:51:00,33.3,-3.5,29.33,ESE,107,0.0,0.0,20,0.00,,---,0.00,VWS V13.01,2013-03-25 06:51:00,
2013-03-25 02:56:00,33.1,-3.6,29.33,ESE,107,0.0,0.0,20,0.00,,---,0.00,VWS V13.01,2013-03-25 06:56:00,
2013-03-25 03:01:00,32.9,-3.8,29.33,ESE,107,0.0,0.0,20,0.00,,---,0.00,VWS V13.01,2013-03-25 07:01:00,
2013-03-25 03:06:00,32.7,-3.9,29.33,ESE,107,0.0,0.0,20,0.00,,---,0.00,VWS V13.01,2013-03-25 07:06:00,
2013-03-25 03:12:00,32.7,-3.9,29.33,ESE,107,0.0,0.0,20,0.00,,---,0.00,VWS V13.01,2013-03-25 07:12:00,
2013-03-25 03:17:00,32.5,-4.1,29.33,ESE,107,0.0,0.0,20,0.00,,---,0.00,VWS V13.01,2013-03-25 07:17:00,
2013-03-25 03:22:00,32.4,-4.2,29.33,ESE,107,0.0,0.0,20,0.00,,---,0.00,VWS V13.01,2013-03-25 07:22:00,
2013-03-25 03:27:00,32.2,-4.4,29.33,ESE,107,0.0,0.0,20,0.00,,---,0.00,VWS V13.01,2013-03-25 07:27:00,
2013-03-25 03:32:00,32.0,-4.5,29.33,ESE,107,0.0,0.0,20,0.00,,---,0.00,VWS V13.01,2013-03-25 07:32:00,
2013-03-25 03:37:00,31.8,-1.8,29.33,ESE,107,0.0,0.0,23,0.00,,---,0.00,VWS V13.01,2013-03-25 07:37:00,
2013-03-25 03:42:00,31.8,-1.8,29.33,ESE,107,0.0,0.0,23,0.00,,---,0.00,VWS V13.01,2013-03-25 07:42:00,
2013-03-25 03:48:00,31.6,-1.9,29.30,ESE,107,0.0,0.0,23,0.00,,---,0.00,VWS V13.01,2013-03-25 07:48:00,
2013-03-25 03:53:00,31.6,-1.9,29.30,ESE,107,0.0,0.0,23,0.00,,---,0.00,VWS V13.01,2013-03-25 07:53:00,
2013-03-25 03:58:00,31.8,-1.8,29.30,ESE,107,0.0,0.0,23,0.00,,---,0.00,VWS V13.01,2013-03-25 07:58:00,
2013-03-25 04:03:00,31.8,-1.8,29.30,ESE,107,0.0,0.0,23,0.00,,---,0.00,VWS V13.01,2013-03-25 08:03:00,
2013-03-25 04:08:00,31.6,-1.9,29.30,ESE,107,0.0,0.0,23,0.00,,---,0.00,VWS V13.01,2013-03-25 08:08:00,
2013-03-25 04:13:00,31.6,-1.9,29.30,ESE,107,0.0,0.0,23,0.00,,---,0.00,VWS V13.01,2013-03-25 08:13:00,
2013-03-25 04:18:00,31.6,-1.9,29.30,ESE,107,0.0,0.0,23,0.00,,---,0.00,VWS V13.01,2013-03-25 08:18:00,
2013-03-25 04:23:00,31.6,-1.9,29.30,ESE,107,0.0,0.0,23,0.00,,---,0.00,VWS V13.01,2013-03-25 08:23:00,
2013-03-25 04:28:00,31.6,-1.9,29.30,ESE,107,0.0,0.0,23,0.00,,---,0.00,VWS V13.01,2013-03-25 08:28:00,
2013-03-25 04:33:00,31.8,-1.8,29.30,ESE,107,0.0,0.0,23,0.00,,---,0.00,VWS V13.01,2013-03-25 08:33:00,
2013-03-25 04:39:00,31.8,-1.8,29.30,ESE,107,0.0,0.0,23,0.00,,---,0.00,VWS V13.01,2013-03-25 08:39:00,
2013-03-25 04:44:00,31.8,-1.8,29.30,ESE,107,0.0,0.0,23,0.00,,---,0.00,VWS V13.01,2013-03-25 08:44:00,
2013-03-25 04:49:00,31.8,0.0,29.27,ESE,107,0.0,0.0,25,0.00,,---,0.00,VWS V13.01,2013-03-25 08:49:00,
2013-03-25 04:54:00,31.8,0.0,29.27,ESE,107,0.0,0.0,25,0.00,,---,0.00,VWS V13.01,2013-03-25 08:54:00,
2013-03-25 04:59:00,31.8,0.0,29.27,ESE,107,0.0,0.0,25,0.00,,---,0.00,VWS V13.01,2013-03-25 08:59:00,
2013-03-25 05:04:00,31.8,0.0,29.27,ESE,107,0.0,0.0,25,0.00,,---,0.00,VWS V13.01,2013-03-25 09:04:00,
2013-03-25 05:09:00,32.0,0.2,29.27,ESE,107,0.0,0.0,25,0.00,,---,0.00,VWS V13.01,2013-03-25 09:09:00,
2013-03-25 05:14:00,32.2,0.3,29.27,ESE,107,0.0,0.0,25,0.00,,---,0.00,VWS V13.01,2013-03-25 09:14:00,
2013-03-25 05:19:00,32.2,0.3,29.27,ESE,107,0.0,0.0,25,0.00,,---,0.00,VWS V13.01,2013-03-25 09:19:00,
2013-03-25 05:24:00,32.4,0.5,29.27,ESE,107,0.0,0.0,25,0.00,,---,0.00,VWS V13.01,2013-03-25 09:24:00,
2013-03-25 05:29:00,32.4,0.5,29.27,ESE,107,0.0,0.0,25,0.00,,---,0.00,VWS V13.01,2013-03-25 09:29:00,
2013-03-25 05:34:00,32.5,0.6,29.27,ESE,107,0.0,0.0,25,0.00,,---,0.00,VWS V13.01,2013-03-25 09:34:00,
2013-03-25 05:39:00,32.5,0.6,29.27,ESE,107,0.0,0.0,25,0.00,,---,0.00,VWS V13.01,2013-03-25 09:39:00,
2013-03-25 05:45:00,32.5,-1.1,29.27,ESE,107,0.0,0.0,23,0.00,,---,0.00,VWS V13.01,2013-03-25 09:45:00,
2013-03-25 05:50:00,32.5,-1.1,29.27,ESE,107,0.0,0.0,23,0.00,,---,0.00,VWS V13.01,2013-03-25 09:50:00,
2013-03-25 05:55:00,32.4,-1.3,29.27,ESE,107,0.0,0.0,23,0.00,,---,0.00,VWS V13.01,2013-03-25 09:55:00,
2013-03-25 06:00:00,32.4,-1.3,29.27,ESE,107,0.0,0.0,23,0.00,,---,0.00,VWS V13.01,2013-03-25 10:00:00,
2013-03-25 06:05:00,32.4,-1.3,29.27,ESE,107,0.0,0.0,23,0.00,,---,0.00,VWS V13.01,2013-03-25 10:05:00,
2013-03-25 06:10:00,32.4,-1.3,29.27,ESE,107,0.0,0.0,23,0.00,,---,0.00,VWS V13.01,2013-03-25 10:10:00,
2013-03-25 06:15:00,32.4,-1.3,29.27,ESE,107,0.0,0.0,23,0.00,,---,0.00,VWS V13.01,2013-03-25 10:15:00,
2013-03-25 06:20:00,32.2,-1.4,29.27,ESE,107,0.0,0.0,23,0.00,,---,0.00,VWS V13.01,2013-03-25 10:20:00,
2013-03-25 06:25:00,32.4,-1.3,29.27,East,85,0.0,0.0,23,0.00,,---,0.00,VWS V13.01,2013-03-25 10:25:00,
2013-03-25 06:30:00,32.4,-1.3,29.27,East,85,0.0,0.0,23,0.00,,---,0.00,VWS V13.01,2013-03-25 10:30:00,
2013-03-25 06:35:00,32.5,-1.1,29.27,East,85,0.0,0.0,23,0.00,,---,0.00,VWS V13.01,2013-03-25 10:35:00,
2013-03-25 06:40:00,32.5,-4.1,29.27,East,85,0.0,0.0,20,0.00,,---,0.00,VWS V13.01,2013-03-25 10:40:00,
2013-03-25 06:45:00,32.5,-4.1,29.27,East,85,0.0,0.0,20,0.00,,---,0.00,VWS V13.01,2013-03-25 10:45:00,
2013-03-25 06:50:00,32.7,-3.9,29.27,East,85,0.0,0.0,20,0.00,,---,0.00,VWS V13.01,2013-03-25 10:50:00,
2013-03-25 06:55:00,32.7,-3.9,29.27,East,85,0.0,0.0,20,0.00,,---,0.00,VWS V13.01,2013-03-25 10:55:00,
2013-03-25 07:00:00,32.7,-3.9,29.27,East,85,0.0,0.0,20,0.00,,---,0.00,VWS V13.01,2013-03-25 11:00:00,
2013-03-25 07:05:00,33.1,-3.6,29.27,East,85,0.0,0.0,20,0.00,,---,0.00,VWS V13.01,2013-03-25 11:05:00,
2013-03-25 07:10:00,33.1,-3.6,29.27,East,85,0.0,0.0,20,0.00,,---,0.00,VWS V13.01,2013-03-25 11:10:00,
2013-03-25 07:15:00,33.3,-3.5,29.27,East,85,0.0,0.0,20,0.00,,---,0.00,VWS V13.01,2013-03-25 11:15:00,
2013-03-25 07:21:00,33.3,-3.5,29.27,ENE,63,0.0,0.0,20,0.00,,---,0.00,VWS V13.01,2013-03-25 11:21:00,
2013-03-25 07:26:00,33.4,-3.3,29.27,ENE,63,0.0,0.0,20,0.00,,---,0.00,VWS V13.01,2013-03-25 11:26:00,
2013-03-25 07:31:00,33.6,-3.2,29.27,ENE,63,0.0,0.0,20,0.00,,---,0.00,VWS V13.01,2013-03-25 11:31:00,
2013-03-25 07:36:00,33.8,-3.0,29.27,ENE,65,0.0,0.0,20,0.00,,---,0.00,VWS V13.01,2013-03-25 11:36:00,
2013-03-25 07:41:00,33.8,-3.0,29.27,ENE,57,0.0,0.0,20,0.00,,---,0.00,VWS V13.01,2013-03-25 11:41:00,
2013-03-25 07:46:00,34.0,-2.9,29.27,NE,50,0.0,0.0,20,0.00,,---,0.00,VWS V13.01,2013-03-25 11:46:00,
2013-03-25 07:51:00,34.2,-2.7,29.27,NE,41,0.0,0.0,20,0.00,,---,0.00,VWS V13.01,2013-03-25 11:51:00,
2013-03-25 07:56:00,34.3,-2.6,29.27,ENE,58,0.0,0.0,20,0.00,,---,0.00,VWS V13.01,2013-03-25 11:56:00,
2013-03-25 08:02:00,34.7,-2.3,29.27,NNW,346,0.0,0.0,20,0.00,,---,0.00,VWS V13.01,2013-03-25 12:02:00,
2013-03-25 08:07:00,34.9,-2.1,29.27,North,357,0.0,0.0,20,0.00,,---,0.00,VWS V13.01,2013-03-25 12:07:00,
2013-03-25 08:12:00,35.2,-1.8,29.27,NE,54,0.0,0.0,20,0.00,,---,0.00,VWS V13.01,2013-03-25 12:12:00,
2013-03-25 08:17:00,35.4,-1.6,29.27,North,353,0.0,0.0,20,0.00,,---,0.00,VWS V13.01,2013-03-25 12:17:00,
2013-03-25 08:22:00,35.4,-1.6,29.27,NE,37,0.0,0.0,20,0.00,,---,0.00,VWS V13.01,2013-03-25 12:22:00,
2013-03-25 08:27:00,35.6,-2.6,29.27,NNE,23,0.0,0.0,19,0.00,,---,0.00,VWS V13.01,2013-03-25 12:27:00,
2013-03-25 08:32:00,35.6,-2.6,29.24,NNE,32,0.0,0.0,19,0.00,,---,0.00,VWS V13.01,2013-03-25 12:32:00,
2013-03-25 08:37:00,35.8,-2.4,29.24,ENE,63,0.0,0.0,19,0.00,,---,0.00,VWS V13.01,2013-03-25 12:37:00,
2013-03-25 08:42:00,36.0,-2.3,29.24,NE,41,0.0,0.0,19,0.00,,---,0.00,VWS V13.01,2013-03-25 12:42:00,
2013-03-25 08:47:00,36.1,-2.1,29.24,North,357,0.0,3.1,19,0.00,,---,0.00,VWS V13.01,2013-03-25 12:47:00,
2013-03-25 08:53:00,36.5,-1.8,29.24,North,353,0.0,3.1,19,0.00,,---,0.00,VWS V13.01,2013-03-25 12:53:00,
2013-03-25 08:58:00,36.9,-1.5,29.24,NE,55,0.0,3.1,19,0.00,,---,0.00,VWS V13.01,2013-03-25 12:58:00,
2013-03-25 09:03:00,37.4,-1.1,29.24,NNE,24,0.0,0.0,19,0.00,,---,0.00,VWS V13.01,2013-03-25 13:03:00,
2013-03-25 09:08:00,37.8,-0.8,29.24,NNE,19,0.0,0.0,19,0.00,,---,0.00,VWS V13.01,2013-03-25 13:08:00,
2013-03-25 09:13:00,38.1,-0.5,29.24,NNE,33,0.0,0.0,19,0.00,,---,0.00,VWS V13.01,2013-03-25 13:13:00,
2013-03-25 09:18:00,38.5,-0.2,29.24,ENE,68,0.0,0.0,19,0.00,,---,0.00,VWS V13.01,2013-03-25 13:18:00,
2013-03-25 09:23:00,38.5,-0.2,29.24,SE,146,0.0,2.7,19,0.00,,---,0.00,VWS V13.01,2013-03-25 13:23:00,
2013-03-25 09:28:00,38.7,0.0,29.24,NW,315,0.0,2.7,19,0.00,,---,0.00,VWS V13.01,2013-03-25 13:28:00,
2013-03-25 09:33:00,39.2,-0.7,29.24,East,88,0.0,2.7,18,0.00,,---,0.00,VWS V13.01,2013-03-25 13:33:00,
2013-03-25 09:38:00,39.4,-0.6,29.24,East,88,0.0,2.7,18,0.00,,---,0.00,VWS V13.01,2013-03-25 13:38:00,
2013-03-25 09:43:00,39.7,-0.3,29.24,NNW,348,0.0,0.0,18,0.00,,---,0.00,VWS V13.01,2013-03-25 13:43:00,
2013-03-25 09:48:00,40.1,0.0,29.27,East,87,0.0,4.0,18,0.00,,---,0.00,VWS V13.01,2013-03-25 13:48:00,
2013-03-25 09:53:00,40.5,0.3,29.27,East,83,0.0,4.0,18,0.00,,---,0.00,VWS V13.01,2013-03-25 13:53:00,
2013-03-25 09:59:00,41.0,0.8,29.27,East,86,0.0,4.0,18,0.00,,---,0.00,VWS V13.01,2013-03-25 13:59:00,
2013-03-25 10:04:00,41.5,1.2,29.27,ESE,104,0.0,0.0,18,0.00,,---,0.00,VWS V13.01,2013-03-25 14:04:00,
2013-03-25 10:09:00,42.3,1.8,29.27,North,349,0.0,0.0,18,0.00,,---,0.00,VWS V13.01,2013-03-25 14:09:00,
2013-03-25 10:14:00,43.5,2.8,29.27,NNE,12,0.0,4.0,18,0.00,,---,0.00,VWS V13.01,2013-03-25 14:14:00,
2013-03-25 10:19:00,45.1,2.9,29.24,NNE,17,0.0,4.0,17,0.00,,---,0.00,VWS V13.01,2013-03-25 14:19:00,
2013-03-25 10:24:00,45.9,3.5,29.24,West,264,0.0,0.0,17,0.00,,---,0.00,VWS V13.01,2013-03-25 14:24:00,
2013-03-25 10:29:00,46.4,4.0,29.24,East,90,0.0,2.7,17,0.00,,---,0.00,VWS V13.01,2013-03-25 14:29:00,
2013-03-25 10:34:00,46.2,3.8,29.24,ENE,58,0.0,2.7,17,0.00,,---,0.00,VWS V13.01,2013-03-25 14:34:00,
2013-03-25 10:39:00,45.3,3.1,29.24,ESE,102,0.0,3.6,17,0.00,,---,0.00,VWS V13.01,2013-03-25 14:39:00,
2013-03-25 10:44:00,44.2,3.4,29.24,East,101,0.0,5.6,18,0.00,,---,0.00,VWS V13.01,2013-03-25 14:44:00,
2013-03-25 10:49:00,43.5,2.8,29.24,North,353,0.0,6.5,18,0.00,,---,0.00,VWS V13.01,2013-03-25 14:49:00,
2013-03-25 10:54:00,43.5,2.8,29.24,ENE,74,0.0,6.5,18,0.00,,---,0.00,VWS V13.01,2013-03-25 14:54:00,
2013-03-25 10:59:00,43.5,2.8,29.24,NE,41,0.0,6.5,18,0.00,,---,0.00,VWS V13.01,2013-03-25 14:59:00,
2013-03-25 11:05:00,43.3,2.7,29.21,ENE,60,0.0,5.6,18,0.00,,---,0.00,VWS V13.01,2013-03-25 15:05:00,
2013-03-25 11:10:00,43.3,2.7,29.21,NE,50,0.0,5.6,18,0.00,,---,0.00,VWS V13.01,2013-03-25 15:10:00,
2013-03-25 11:15:00,43.0,2.4,29.21,NE,49,0.0,5.6,18,0.00,,---,0.00,VWS V13.01,2013-03-25 15:15:00,
2013-03-25 11:20:00,42.8,2.2,29.21,ENE,59,0.0,0.0,18,0.00,,---,0.00,VWS V13.01,2013-03-25 15:20:00,
2013-03-25 11:25:00,42.4,1.9,29.21,ESE,103,0.0,2.7,18,0.00,,---,0.00,VWS V13.01,2013-03-25 15:25:00,
2013-03-25 11:30:00,42.3,1.8,29.21,ENE,59,0.0,4.7,18,0.00,,---,0.00,VWS V13.01,2013-03-25 15:30:00,
2013-03-25 11:35:00,42.6,2.1,29.21,North,349,0.0,4.7,18,0.00,,---,0.00,VWS V13.01,2013-03-25 15:35:00,
2013-03-25 11:40:00,42.8,2.2,29.21,East,82,0.0,0.0,18,0.00,,---,0.00,VWS V13.01,2013-03-25 15:40:00,
2013-03-25 11:46:00,43.0,2.4,29.21,ENE,73,0.0,0.0,18,0.00,,---,0.00,VWS V13.01,2013-03-25 15:46:00,
2013-03-25 11:51:00,43.0,2.4,29.21,East,88,0.0,2.7,18,0.00,,---,0.00,VWS V13.01,2013-03-25 15:51:00,
2013-03-25 11:56:00,43.0,2.4,29.21,North,357,0.0,5.1,18,0.00,,---,0.00,VWS V13.01,2013-03-25 15:56:00,
2013-03-25 12:01:00,43.0,2.4,29.21,NNW,343,0.0,0.0,18,0.00,,---,0.00,VWS V13.01,2013-03-25 16:01:00,
2013-03-25 12:07:00,43.2,2.5,29.21,ESE,104,0.0,3.6,18,0.00,,---,0.00,VWS V13.01,2013-03-25 16:07:00,
2013-03-25 12:12:00,43.3,2.7,29.21,ENE,75,0.0,3.6,18,0.00,,---,0.00,VWS V13.01,2013-03-25 16:12:00,
2013-03-25 12:17:00,43.7,3.0,29.18,ENE,77,0.0,4.5,18,0.00,,---,0.00,VWS V13.01,2013-03-25 16:17:00,
2013-03-25 12:22:00,43.7,3.0,29.18,ESE,108,0.0,3.1,18,0.00,,---,0.00,VWS V13.01,2013-03-25 16:22:00,
2013-03-25 12:27:00,43.7,3.0,29.18,East,79,0.0,3.1,18,0.00,,---,0.00,VWS V13.01,2013-03-25 16:27:00,
2013-03-25 12:32:00,43.9,3.1,29.18,SE,130,0.0,4.7,18,0.00,,---,0.00,VWS V13.01,2013-03-25 16:32:00,
2013-03-25 12:37:00,43.9,3.1,29.18,ESE,105,0.0,4.7,18,0.00,,---,0.00,VWS V13.01,2013-03-25 16:37:00,
2013-03-25 12:42:00,44.1,3.3,29.18,SSE,147,0.0,3.1,18,0.00,,---,0.00,VWS V13.01,2013-03-25 16:42:00,
2013-03-25 12:47:00,44.8,2.6,29.18,ESE,108,0.0,3.1,17,0.00,,---,0.00,VWS V13.01,2013-03-25 16:47:00,
2013-03-25 12:52:00,45.1,2.9,29.18,SE,141,0.0,3.1,17,0.00,,---,0.00,VWS V13.01,2013-03-25 16:52:00,
2013-03-25 12:57:00,45.3,3.1,29.18,ESE,108,0.0,3.1,17,0.00,,---,0.00,VWS V13.01,2013-03-25 16:57:00,
2013-03-25 13:02:00,45.3,3.1,29.18,East,83,0.0,2.7,17,0.00,,---,0.00,VWS V13.01,2013-03-25 17:02:00,
2013-03-25 13:08:00,45.3,3.1,29.18,East,94,0.0,2.7,17,0.00,,---,0.00,VWS V13.01,2013-03-25 17:08:00,
2013-03-25 13:13:00,45.3,3.1,29.18,ESE,118,0.0,2.7,17,0.00,,---,0.00,VWS V13.01,2013-03-25 17:13:00,
2013-03-25 13:18:00,45.5,3.2,29.15,ESE,117,0.0,5.1,17,0.00,,---,0.00,VWS V13.01,2013-03-25 17:18:00,
2013-03-25 13:23:00,45.3,3.1,29.15,North,357,0.0,2.7,17,0.00,,---,0.00,VWS V13.01,2013-03-25 17:23:00,
2013-03-25 13:28:00,45.1,2.9,29.15,NNE,33,0.0,2.7,17,0.00,,---,0.00,VWS V13.01,2013-03-25 17:28:00,
2013-03-25 13:33:00,45.1,2.9,29.15,NE,48,0.0,2.7,17,0.00,,---,0.00,VWS V13.01,2013-03-25 17:33:00,
2013-03-25 13:38:00,45.1,2.9,29.15,NE,53,0.0,4.5,17,0.00,,---,0.00,VWS V13.01,2013-03-25 17:38:00,
2013-03-25 13:43:00,45.0,2.8,29.15,ENE,57,0.0,6.9,17,0.00,,---,0.00,VWS V13.01,2013-03-25 17:43:00,
2013-03-25 13:48:00,44.6,2.5,29.15,ENE,77,0.0,6.9,17,0.00,,---,0.00,VWS V13.01,2013-03-25 17:48:00,
2013-03-25 13:53:00,44.4,3.6,29.15,SE,141,0.0,6.9,18,0.00,,---,0.00,VWS V13.01,2013-03-25 17:53:00,
2013-03-25 13:58:00,44.2,3.4,29.15,East,86,0.0,6.9,18,0.00,,---,0.00,VWS V13.01,2013-03-25 17:58:00,
2013-03-25 14:03:00,44.2,3.4,29.12,ENE,73,0.0,0.0,18,0.00,,---,0.00,VWS V13.01,2013-03-25 18:03:00,
2013-03-25 14:08:00,44.4,3.6,29.12,SE,128,0.0,0.0,18,0.00,,---,0.00,VWS V13.01,2013-03-25 18:08:00,
2013-03-25 14:13:00,44.4,3.6,29.12,ESE,112,0.0,0.0,18,0.00,,---,0.00,VWS V13.01,2013-03-25 18:13:00,
2013-03-25 14:18:00,44.8,2.6,29.12,North,357,0.0,0.0,17,0.00,,---,0.00,VWS V13.01,2013-03-25 18:18:00,
2013-03-25 14:24:00,44.8,2.6,29.12,ESE,112,0.0,0.0,17,0.00,,---,0.00,VWS V13.01,2013-03-25 18:24:00,
2013-03-25 14:29:00,45.1,2.9,29.12,WNW,302,0.0,0.0,17,0.00,,---,0.00,VWS V13.01,2013-03-25 18:29:00,
2013-03-25 14:34:00,45.1,2.9,29.09,NNE,18,0.0,6.5,17,0.00,,---,0.00,VWS V13.01,2013-03-25 18:34:00,
2013-03-25 14:39:00,44.8,2.6,29.09,North,6,0.0,6.5,17,0.00,,---,0.00,VWS V13.01,2013-03-25 18:39:00,
2013-03-25 14:44:00,45.0,2.8,29.09,NE,54,0.0,4.7,17,0.00,,---,0.00,VWS V13.01,2013-03-25 18:44:00,
2013-03-25 14:49:00,45.1,2.9,29.09,North,357,0.0,5.1,17,0.00,,---,0.00,VWS V13.01,2013-03-25 18:49:00,
2013-03-25 14:54:00,45.9,3.5,29.09,WNW,291,0.0,5.1,17,0.00,,---,0.00,VWS V13.01,2013-03-25 18:54:00,
2013-03-25 14:59:00,45.7,3.4,29.09,NE,48,0.0,5.1,17,0.00,,---,0.00,VWS V13.01,2013-03-25 18:59:00,
2013-03-25 15:04:00,45.3,3.1,29.09,East,93,0.0,0.0,17,0.00,,---,0.00,VWS V13.01,2013-03-25 19:04:00,
2013-03-25 15:09:00,45.0,2.8,29.09,ENE,74,0.0,0.0,17,0.00,,---,0.00,VWS V13.01,2013-03-25 19:09:00,
2013-03-25 15:15:00,44.6,2.5,29.09,North,8,0.0,0.0,17,0.00,,---,0.00,VWS V13.01,2013-03-25 19:15:00,
2013-03-25 15:20:00,44.6,2.5,29.09,ESE,122,0.0,0.0,17,0.00,,---,0.00,VWS V13.01,2013-03-25 19:20:00,
2013-03-25 15:25:00,44.4,3.6,29.09,ENE,75,0.0,3.6,18,0.00,,---,0.00,VWS V13.01,2013-03-25 19:25:00,
2013-03-25 15:30:00,44.4,3.6,29.09,ENE,67,0.0,6.9,18,0.00,,---,0.00,VWS V13.01,2013-03-25 19:30:00,
2013-03-25 15:35:00,44.6,2.5,29.09,NE,41,0.0,6.9,17,0.00,,---,0.00,VWS V13.01,2013-03-25 19:35:00,
2013-03-25 15:40:00,44.8,2.6,29.09,North,10,0.0,0.0,17,0.00,,---,0.00,VWS V13.01,2013-03-25 19:40:00,
2013-03-25 15:45:00,44.4,3.6,29.09,ENE,64,0.0,6.0,18,0.00,,---,0.00,VWS V13.01,2013-03-25 19:45:00,
2013-03-25 15:50:00,43.9,3.1,29.09,ESE,104,0.0,6.0,18,0.00,,---,0.00,VWS V13.01,2013-03-25 19:50:00,
2013-03-25 15:55:00,43.5,2.8,29.09,East,92,0.0,6.9,18,0.00,,---,0.00,VWS V13.01,2013-03-25 19:55:00,
2013-03-25 16:00:00,43.7,3.0,29.09,NNW,340,0.0,0.0,18,0.00,,---,0.00,VWS V13.01,2013-03-25 20:00:00,
2013-03-25 16:06:00,43.7,3.0,29.09,NE,54,0.0,0.0,18,0.00,,---,0.00,VWS V13.01,2013-03-25 20:06:00,
2013-03-25 16:11:00,43.5,2.8,29.09,ESE,109,0.0,0.0,18,0.00,,---,0.00,VWS V13.01,2013-03-25 20:11:00,
2013-03-25 16:16:00,43.2,2.5,29.09,ENE,61,0.0,0.0,18,0.00,,---,0.00,VWS V13.01,2013-03-25 20:16:00,
2013-03-25 16:21:00,42.8,2.2,29.09,North,353,0.0,0.0,18,0.00,,---,0.00,VWS V13.01,2013-03-25 20:21:00,
2013-03-25 16:27:00,42.8,2.2,29.09,NE,43,0.0,0.0,18,0.00,,---,0.00,VWS V13.01,2013-03-25 20:27:00,
2013-03-25 16:32:00,43.0,2.4,29.09,NNE,25,0.0,0.0,18,0.00,,---,0.00,VWS V13.01,2013-03-25 20:32:00,
2013-03-25 16:37:00,43.0,2.4,29.09,NE,43,0.0,3.6,18,0.00,,---,0.00,VWS V13.01,2013-03-25 20:37:00,
2013-03-25 16:42:00,43.3,2.7,29.09,NNW,341,0.0,0.0,18,0.00,,---,0.00,VWS V13.01,2013-03-25 20:42:00,
2013-03-25 16:47:00,43.5,2.8,29.09,ESE,103,0.0,0.0,18,0.00,,---,0.00,VWS V13.01,2013-03-25 20:47:00,
2013-03-25 16:52:00,43.3,2.7,29.09,NE,42,0.0,0.0,18,0.00,,---,0.00,VWS V13.01,2013-03-25 20:52:00,
2013-03-25 16:57:00,43.2,2.5,29.09,North,357,0.0,0.0,18,0.00,,---,0.00,VWS V13.01,2013-03-25 20:57:00,
2013-03-25 17:02:00,43.2,2.5,29.09,East,88,0.0,0.0,18,0.00,,---,0.00,VWS V13.01,2013-03-25 21:02:00,
2013-03-25 17:07:00,43.0,2.4,29.09,North,357,0.0,2.7,18,0.00,,---,0.00,VWS V13.01,2013-03-25 21:07:00,
2013-03-25 17:12:00,42.8,2.2,29.09,North,357,0.0,2.7,18,0.00,,---,0.00,VWS V13.01,2013-03-25 21:12:00,
2013-03-25 17:17:00,42.6,2.1,29.09,North,357,0.0,2.7,18,0.00,,---,0.00,VWS V13.01,2013-03-25 21:17:00,
2013-03-25 17:22:00,42.4,1.9,29.09,North,353,0.0,3.6,18,0.00,,---,0.00,VWS V13.01,2013-03-25 21:22:00,
2013-03-25 17:27:00,41.9,1.5,29.09,North,357,0.0,3.6,18,0.00,,---,0.00,VWS V13.01,2013-03-25 21:27:00,
2013-03-25 17:33:00,41.7,1.4,29.09,NE,36,0.0,3.6,18,0.00,,---,0.00,VWS V13.01,2013-03-25 21:33:00,
2013-03-25 17:38:00,41.7,1.4,29.09,NNW,340,0.0,3.6,18,0.00,,---,0.00,VWS V13.01,2013-03-25 21:38:00,
2013-03-25 17:43:00,41.7,1.4,29.09,ENE,70,0.0,0.0,18,0.00,,---,0.00,VWS V13.01,2013-03-25 21:43:00,
2013-03-25 17:48:00,41.5,1.2,29.09,North,353,0.0,0.0,18,0.00,,---,0.00,VWS V13.01,2013-03-25 21:48:00,
2013-03-25 17:53:00,41.2,0.9,29.09,NNW,346,0.0,2.7,18,0.00,,---,0.00,VWS V13.01,2013-03-25 21:53:00,
2013-03-25 17:58:00,41.0,0.8,29.09,NE,42,0.0,4.5,18,0.00,,---,0.00,VWS V13.01,2013-03-25 21:58:00,
2013-03-25 18:03:00,40.6,0.5,29.09,NNE,22,0.0,0.0,18,0.00,,---,0.00,VWS V13.01,2013-03-25 22:03:00,
2013-03-25 18:08:00,40.6,0.5,29.09,NNW,340,0.0,3.6,18,0.00,,---,0.00,VWS V13.01,2013-03-25 22:08:00,
2013-03-25 18:13:00,40.5,0.3,29.09,NNW,341,0.0,3.6,18,0.00,,---,0.00,VWS V13.01,2013-03-25 22:13:00,
2013-03-25 18:18:00,40.5,0.3,29.09,SE,133,0.0,3.6,18,0.00,,---,0.00,VWS V13.01,2013-03-25 22:18:00,
2013-03-25 18:24:00,40.5,0.3,29.09,NE,34,0.0,0.0,18,0.00,,---,0.00,VWS V13.01,2013-03-25 22:24:00,
2013-03-25 18:29:00,40.3,0.2,29.09,North,8,0.0,4.5,18,0.00,,---,0.00,VWS V13.01,2013-03-25 22:29:00,
2013-03-25 18:34:00,40.3,0.2,29.12,ENE,67,0.0,4.5,18,0.00,,---,0.00,VWS V13.01,2013-03-25 22:34:00,
2013-03-25 18:39:00,40.3,0.2,29.12,North,357,0.0,4.5,18,0.00,,---,0.00,VWS V13.01,2013-03-25 22:39:00,
2013-03-25 18:44:00,40.3,0.2,29.12,NNW,348,0.0,0.0,18,0.00,,---,0.00,VWS V13.01,2013-03-25 22:44:00,
2013-03-25 18:49:00,40.1,0.0,29.12,North,353,0.0,2.7,18,0.00,,---,0.00,VWS V13.01,2013-03-25 22:49:00,
2013-03-25 18:54:00,40.1,0.0,29.12,NNW,346,0.0,4.0,18,0.00,,---,0.00,VWS V13.01,2013-03-25 22:54:00,
2013-03-25 18:59:00,39.9,-0.1,29.12,NNW,344,0.0,4.0,18,0.00,,---,0.00,VWS V13.01,2013-03-25 22:59:00,
2013-03-25 19:04:00,39.9,-0.1,29.12,ESE,106,0.0,6.0,18,0.00,,---,0.00,VWS V13.01,2013-03-25 23:04:00,
2013-03-25 19:10:00,39.9,-0.1,29.12,NE,35,0.0,6.0,18,0.00,,---,0.00,VWS V13.01,2013-03-25 23:10:00,
2013-03-25 19:15:00,39.7,-0.3,29.12,North,353,0.0,6.0,18,0.00,,---,0.00,VWS V13.01,2013-03-25 23:15:00,
2013-03-25 19:20:00,39.7,-0.3,29.12,NE,42,0.0,0.0,18,0.00,,---,0.00,VWS V13.01,2013-03-25 23:20:00,
2013-03-25 19:25:00,39.6,-0.4,29.12,North,357,0.0,0.0,18,0.00,,---,0.00,VWS V13.01,2013-03-25 23:25:00,
2013-03-25 19:30:00,39.6,-0.4,29.12,North,7,0.0,0.0,18,0.00,,---,0.00,VWS V13.01,2013-03-25 23:30:00,
2013-03-25 19:35:00,39.4,-0.6,29.12,NNE,29,0.0,0.0,18,0.00,,---,0.00,VWS V13.01,2013-03-25 23:35:00,
2013-03-25 19:40:00,39.4,-0.6,29.12,NNE,32,0.0,0.0,18,0.00,,---,0.00,VWS V13.01,2013-03-25 23:40:00,
2013-03-25 19:45:00,39.4,-0.6,29.15,NNW,344,0.0,0.0,18,0.00,,---,0.00,VWS V13.01,2013-03-25 23:45:00,
2013-03-25 19:50:00,39.4,-0.6,29.15,NNW,345,0.0,0.0,18,0.00,,---,0.00,VWS V13.01,2013-03-25 23:50:00,
2013-03-25 19:56:00,39.4,-0.6,29.15,North,357,0.0,0.0,18,0.00,,---,0.00,VWS V13.01,2013-03-25 23:56:00,
2013-03-25 20:01:00,39.6,-0.4,29.15,NE,56,0.0,3.6,18,0.00,,---,0.00,VWS V13.01,2013-03-26 00:01:00,
2013-03-25 20:07:00,39.6,-0.4,29.15,East,83,0.0,4.0,18,0.00,,---,0.00,VWS V13.01,2013-03-26 00:07:00,
2013-03-25 20:12:00,39.4,-0.6,29.15,North,353,0.0,4.0,18,0.00,,---,0.00,VWS V13.01,2013-03-26 00:12:00,
2013-03-25 20:17:00,39.4,-0.6,29.15,North,9,0.0,4.0,18,0.00,,---,0.00,VWS V13.01,2013-03-26 00:17:00,
2013-03-25 20:22:00,39.4,-0.6,29.15,NNW,348,0.0,0.0,18,0.00,,---,0.00,VWS V13.01,2013-03-26 00:22:00,
2013-03-25 20:27:00,39.2,-0.7,29.15,NW,325,0.0,2.7,18,0.00,,---,0.00,VWS V13.01,2013-03-26 00:27:00,
2013-03-25 20:32:00,39.2,-0.7,29.15,NNW,334,0.0,2.7,18,0.00,,---,0.00,VWS V13.01,2013-03-26 00:32:00,
2013-03-25 20:37:00,39.2,-0.7,29.15,NE,51,0.0,2.7,18,0.00,,---,0.00,VWS V13.01,2013-03-26 00:37:00,
2013-03-25 20:42:00,39.2,-0.7,29.15,North,353,0.0,0.0,18,0.00,,---,0.00,VWS V13.01,2013-03-26 00:42:00,
2013-03-25 20:47:00,39.0,0.3,29.15,NNE,27,0.0,0.0,19,0.00,,---,0.00,VWS V13.01,2013-03-26 00:47:00,
2013-03-25 20:52:00,39.2,-0.7,29.15,NNE,29,0.0,2.7,18,0.00,,---,0.00,VWS V13.01,2013-03-26 00:52:00,
2013-03-25 20:57:00,39.2,-0.7,29.15,NE,38,0.0,2.7,18,0.00,,---,0.00,VWS V13.01,2013-03-26 00:57:00,
2013-03-25 21:02:00,39.2,-0.7,29.15,NE,46,0.0,0.0,18,0.00,,---,0.00,VWS V13.01,2013-03-26 01:02:00,
2013-03-25 21:07:00,39.2,-0.7,29.15,North,357,0.0,7.4,18,0.00,,---,0.00,VWS V13.01,2013-03-26 01:07:00,
2013-03-25 21:13:00,39.2,-0.7,29.15,North,357,0.0,7.4,18,0.00,,---,0.00,VWS V13.01,2013-03-26 01:13:00,
2013-03-25 21:18:00,39.2,-0.7,29.18,ENE,70,0.0,7.4,18,0.00,,---,0.00,VWS V13.01,2013-03-26 01:18:00,
2013-03-25 21:23:00,39.2,-0.7,29.18,North,357,0.0,2.7,18,0.00,,---,0.00,VWS V13.01,2013-03-26 01:23:00,
2013-03-25 21:28:00,39.2,-0.7,29.18,North,357,0.0,2.7,18,0.00,,---,0.00,VWS V13.01,2013-03-26 01:28:00,
2013-03-25 21:33:00,39.2,-0.7,29.18,North,357,0.0,2.7,18,0.00,,---,0.00,VWS V13.01,2013-03-26 01:33:00,
2013-03-25 21:38:00,39.0,0.3,29.18,North,5,0.0,4.0,19,0.00,,---,0.00,VWS V13.01,2013-03-26 01:38:00,
2013-03-25 21:43:00,38.8,0.1,29.18,North,357,0.0,0.0,19,0.00,,---,0.00,VWS V13.01,2013-03-26 01:43:00,
2013-03-25 21:48:00,38.8,0.1,29.18,NNE,26,0.0,0.0,19,0.00,,---,0.00,VWS V13.01,2013-03-26 01:48:00,
2013-03-25 21:53:00,38.8,0.1,29.18,NNW,336,0.0,3.1,19,0.00,,---,0.00,VWS V13.01,2013-03-26 01:53:00,
2013-03-25 21:58:00,38.8,0.1,29.18,NNE,31,0.0,3.1,19,0.00,,---,0.00,VWS V13.01,2013-03-26 01:58:00,
2013-03-25 22:03:00,38.8,0.1,29.18,NNW,345,0.0,0.0,19,0.00,,---,0.00,VWS V13.01,2013-03-26 02:03:00,
2013-03-25 22:08:00,38.8,0.1,29.18,NW,319,0.0,5.1,19,0.00,,---,0.00,VWS V13.01,2013-03-26 02:08:00,
2013-03-25 22:14:00,38.8,0.1,29.18,North,357,0.0,5.1,19,0.00,,---,0.00,VWS V13.01,2013-03-26 02:14:00,
2013-03-25 22:19:00,38.7,0.0,29.18,North,5,0.0,5.1,19,0.00,,---,0.00,VWS V13.01,2013-03-26 02:19:00,
2013-03-25 22:24:00,38.7,0.0,29.18,NNW,339,0.0,0.0,19,0.00,,---,0.00,VWS V13.01,2013-03-26 02:24:00,
2013-03-25 22:29:00,38.5,-0.2,29.18,North,353,0.0,4.7,19,0.00,,---,0.00,VWS V13.01,2013-03-26 02:29:00,
2013-03-25 22:34:00,38.5,-0.2,29.18,NE,39,0.0,4.7,19,0.00,,---,0.00,VWS V13.01,2013-03-26 02:34:00,
2013-03-25 22:39:00,38.5,-0.2,29.18,NE,56,0.0,4.7,19,0.00,,---,0.00,VWS V13.01,2013-03-26 02:39:00,
2013-03-25 22:44:00,38.5,-0.2,29.18,North,0,0.0,4.5,19,0.00,,---,0.00,VWS V13.01,2013-03-26 02:44:00,
2013-03-25 22:50:00,38.5,-0.2,29.18,ENE,65,0.0,4.5,19,0.00,,---,0.00,VWS V13.01,2013-03-26 02:50:00,
2013-03-25 22:55:00,38.3,-0.3,29.18,NNE,25,0.0,4.5,19,0.00,,---,0.00,VWS V13.01,2013-03-26 02:55:00,
2013-03-25 23:00:00,38.3,-0.3,29.18,NE,43,0.0,0.0,19,0.00,,---,0.00,VWS V13.01,2013-03-26 03:00:00,
2013-03-25 23:05:00,38.3,-0.3,29.18,NNW,333,0.0,7.4,19,0.00,,---,0.00,VWS V13.01,2013-03-26 03:05:00,
2013-03-25 23:10:00,38.3,-0.3,29.18,NE,54,0.0,7.4,19,0.00,,---,0.00,VWS V13.01,2013-03-26 03:10:00,
2013-03-25 23:15:00,38.1,-0.5,29.18,North,357,0.0,7.4,19,0.00,,---,0.00,VWS V13.01,2013-03-26 03:15:00,
2013-03-25 23:20:00,38.1,-0.5,29.18,NNW,331,0.0,0.0,19,0.00,,---,0.00,VWS V13.01,2013-03-26 03:20:00,
2013-03-25 23:25:00,38.1,-0.5,29.18,NNE,30,0.0,6.0,19,0.00,,---,0.00,VWS V13.01,2013-03-26 03:25:00,
2013-03-25 23:30:00,38.1,-0.5,29.18,NNW,342,0.0,6.0,19,0.00,,---,0.00,VWS V13.01,2013-03-26 03:30:00,
2013-03-25 23:35:00,37.9,-0.6,29.18,North,349,0.0,6.0,19,0.00,,---,0.00,VWS V13.01,2013-03-26 03:35:00,
2013-03-25 23:40:00,37.8,-0.8,29.18,NNW,340,0.0,0.0,19,0.00,,---,0.00,VWS V13.01,2013-03-26 03:40:00,
2013-03-25 23:45:00,37.6,-0.9,29.18,North,349,0.0,0.0,19,0.00,,---,0.00,VWS V13.01,2013-03-26 03:45:00,
2013-03-25 23:50:00,37.8,-0.8,29.18,NNE,33,0.0,0.0,19,0.00,,---,0.00,VWS V13.01,2013-03-26 03:50:00,
2013-03-25 23:56:00,37.8,-0.8,29.18,North,353,0.0,0.0,19,0.00,,---,0.00,VWS V13.01,2013-03-26 03:56:00,